createdAt,value
2022-11-30T00:02:13.004Z,100904.66
2022-11-30T00:05:03.097Z,100909.25
2022-11-30T00:07:51.891Z,100911.66
2022-11-30T00:10:42.998Z,100903.91
2022-11-30T00:13:31.860Z,100902.25
2022-11-30T00:16:20.653Z,100909.91
2022-11-30T00:19:09.476Z,100922.41
2022-11-30T00:21:59.471Z,100916.63
2022-11-30T00:24:48.551Z,100918.97
2022-11-30T00:27:37.572Z,100921.94
2022-11-30T00:30:26.277Z,100919.94
2022-11-30T00:33:14.981Z,100919.66
2022-11-30T00:36:05.593Z,100917.31
2022-11-30T00:38:55.698Z,100924.31
2022-11-30T00:41:44.291Z,100918.44
2022-11-30T00:44:32.906Z,100923.22
2022-11-30T00:47:21.641Z,100920.84
2022-11-30T00:50:11.342Z,100918.97
2022-11-30T00:52:59.871Z,100921.47
2022-11-30T00:55:50.403Z,100919.34
2022-11-30T00:58:39.012Z,100920.47
2022-11-30T01:01:27.677Z,100922.31
2022-11-30T01:04:16.334Z,100922.31
2022-11-30T01:07:04.896Z,100920.19
2022-11-30T01:09:53.479Z,100912.53
2022-11-30T01:12:43.534Z,100918.03
2022-11-30T01:15:32.264Z,100916.03
2022-11-30T01:18:20.912Z,100921.84
2022-11-30T01:21:10.587Z,100918.84
2022-11-30T01:23:59.204Z,100911.22
2022-11-30T01:26:47.915Z,100909.84
2022-11-30T01:29:37.952Z,100916.03
2022-11-30T01:32:26.658Z,100915.66
2022-11-30T01:35:15.390Z,100916.38
2022-11-30T01:38:04.020Z,100912.69
2022-11-30T01:40:52.958Z,100914.38
2022-11-30T01:43:43.871Z,100912.53
2022-11-30T01:46:37.234Z,100917.38
2022-11-30T01:49:30.427Z,100914.38
2022-11-30T01:52:21.447Z,100917.09
2022-11-30T01:55:16.502Z,100914.38
2022-11-30T01:58:07.779Z,100922.41
2022-11-30T02:00:56.562Z,100915.06
2022-11-30T02:03:50.877Z,100911.41
2022-11-30T02:06:39.451Z,100918.28
2022-11-30T02:09:28.739Z,100915.91
2022-11-30T02:12:24.491Z,100919.41
2022-11-30T02:15:14.452Z,100920.06
2022-11-30T02:18:08.554Z,100916.38
2022-11-30T02:21:09.026Z,100929.41
2022-11-30T02:24:24.409Z,100922.41
2022-11-30T02:27:22.019Z,100922.06
2022-11-30T02:30:13.738Z,100926.94
2022-11-30T02:33:05.455Z,100928.59
2022-11-30T02:35:55.536Z,100933.56
2022-11-30T02:38:44.328Z,100934.72
2022-11-30T02:41:38.403Z,100932.44
2022-11-30T02:44:27.358Z,100928.06
2022-11-30T02:47:24.499Z,100921.72
2022-11-30T02:50:16.275Z,100919.41
2022-11-30T02:53:05.190Z,100922.94
2022-11-30T02:55:55.275Z,100919.09
2022-11-30T02:58:44.252Z,100928.13
2022-11-30T03:01:32.952Z,100935.09
2022-11-30T03:04:23.020Z,100938.09
2022-11-30T03:07:11.729Z,100942.94
2022-11-30T03:10:01.471Z,100933.09
2022-11-30T03:12:50.052Z,100948.06
2022-11-30T03:15:41.561Z,100935.59
2022-11-30T03:18:30.222Z,100952.22
2022-11-30T03:21:20.326Z,100950.75
2022-11-30T03:24:09.729Z,100952.13
2022-11-30T03:26:58.334Z,100953.13
2022-11-30T03:29:46.982Z,100953.59
2022-11-30T03:32:35.585Z,100956.28
2022-11-30T03:35:24.226Z,100949.44
2022-11-30T03:38:14.254Z,100960.75
2022-11-30T03:41:03.352Z,100953.13
2022-11-30T03:43:52.029Z,100961.66
2022-11-30T03:46:40.842Z,100959.84
2022-11-30T03:49:29.493Z,100966.47
2022-11-30T03:52:18.124Z,100966.28
2022-11-30T03:55:09.564Z,100966.09
2022-11-30T03:57:58.172Z,100966.03
2022-11-30T04:00:46.815Z,100962.13
2022-11-30T04:03:35.913Z,100959.28
2022-11-30T04:06:24.514Z,100961.59
2022-11-30T04:09:13.200Z,100961.41
2022-11-30T04:12:03.131Z,100960.59
2022-11-30T04:14:51.727Z,100956.81
2022-11-30T04:17:40.392Z,100958.81
2022-11-30T04:20:29.050Z,100959.28
2022-11-30T04:23:17.726Z,100964.16
2022-11-30T04:26:06.953Z,100964.16
2022-11-30T04:28:57.002Z,100959.09
2022-11-30T04:31:45.682Z,100961.13
2022-11-30T04:34:34.316Z,100966.28
2022-11-30T04:37:22.913Z,100965.81
2022-11-30T04:40:12.295Z,100961.66
2022-11-30T04:43:00.963Z,100961.66
2022-11-30T04:45:51.183Z,100967.84
2022-11-30T04:48:39.848Z,100969.81
2022-11-30T04:51:28.454Z,100962.84
2022-11-30T04:54:17.058Z,100964.50
2022-11-30T04:57:06.473Z,100964.84
2022-11-30T04:59:55.026Z,100969.81
2022-11-30T05:02:52.144Z,100975.16
2022-11-30T05:05:41.657Z,100970.19
2022-11-30T05:08:30.251Z,100968.16
2022-11-30T05:11:18.961Z,100984.16
2022-11-30T05:14:07.536Z,100981.69
2022-11-30T05:16:56.129Z,100982.19
2022-11-30T05:19:46.119Z,100985.94
2022-11-30T05:22:35.259Z,100988.81
2022-11-30T05:25:23.882Z,100982.31
2022-11-30T05:28:12.746Z,100988.63
2022-11-30T05:31:04.451Z,100990.84
2022-11-30T05:33:55.125Z,101004.28
2022-11-30T05:36:45.110Z,101007.88
2022-11-30T05:39:33.743Z,101000.91
2022-11-30T05:42:22.428Z,101006.38
2022-11-30T05:45:12.277Z,101015.53
2022-11-30T05:48:01.031Z,101018.53
2022-11-30T05:50:49.636Z,101017.28
2022-11-30T05:53:39.962Z,101015.44
2022-11-30T05:56:28.615Z,101021.13
2022-11-30T05:59:17.230Z,101020.44
2022-11-30T06:02:06.042Z,101018.13
2022-11-30T06:04:54.709Z,101016.13
2022-11-30T06:07:43.381Z,101031.28
2022-11-30T06:10:33.442Z,101034.09
2022-11-30T06:13:27.439Z,101030.09
2022-11-30T06:16:17.520Z,101023.13
2022-11-30T06:19:06.188Z,101026.72
2022-11-30T06:21:54.818Z,101031.03
2022-11-30T06:24:43.653Z,101026.06
2022-11-30T06:27:33.948Z,101030.09
2022-11-30T06:30:23.033Z,101037.91
2022-11-30T06:33:11.570Z,101025.41
2022-11-30T06:36:00.453Z,101035.06
2022-11-30T06:38:49.014Z,101033.06
2022-11-30T06:41:37.601Z,101039.69
2022-11-30T06:44:27.649Z,101045.03
2022-11-30T06:47:16.469Z,101042.72
2022-11-30T06:50:06.322Z,101031.25
2022-11-30T06:52:55.847Z,101042.91
2022-11-30T06:55:44.485Z,101050.72
2022-11-30T06:58:33.170Z,101049.66
2022-11-30T07:01:23.734Z,101059.34
2022-11-30T07:04:12.433Z,101061.00
2022-11-30T07:07:01.080Z,101059.03
2022-11-30T07:09:49.679Z,101069.69
2022-11-30T07:12:38.276Z,101071.00
2022-11-30T07:15:26.902Z,101070.50
2022-11-30T07:18:16.863Z,101069.50
2022-11-30T07:21:06.655Z,101073.00
2022-11-30T07:24:13.128Z,101082.81
2022-11-30T07:27:02.466Z,101083.59
2022-11-30T07:29:52.465Z,101081.28
2022-11-30T07:32:43.573Z,101096.00
2022-11-30T07:35:33.605Z,101089.50
2022-11-30T07:38:22.398Z,101086.91
2022-11-30T07:41:11.140Z,101086.09
2022-11-30T07:43:59.831Z,101088.91
2022-11-30T07:46:48.452Z,101088.63
2022-11-30T07:49:38.963Z,101088.91
2022-11-30T07:52:29.046Z,101086.09
2022-11-30T07:55:19.901Z,101088.25
2022-11-30T07:58:14.206Z,101097.91
2022-11-30T08:01:07.451Z,101099.22
2022-11-30T08:03:56.669Z,101096.91
2022-11-30T08:06:45.372Z,101093.72
2022-11-30T08:09:35.536Z,101098.88
2022-11-30T08:12:24.222Z,101090.81
2022-11-30T08:15:21.462Z,101095.22
2022-11-30T08:18:11.426Z,101098.53
2022-11-30T08:21:00.936Z,101091.19
2022-11-30T08:23:54.056Z,101086.34
2022-11-30T08:26:44.127Z,101106.81
2022-11-30T08:29:32.744Z,101099.97
2022-11-30T08:32:21.554Z,101100.81
2022-11-30T08:35:10.920Z,101093.75
2022-11-30T08:37:59.652Z,101098.78
2022-11-30T08:40:48.226Z,101113.13
2022-11-30T08:43:38.476Z,101111.06
2022-11-30T08:46:50.293Z,101112.91
2022-11-30T08:49:35.677Z,101114.44
2022-11-30T08:52:24.312Z,101120.09
2022-11-30T08:55:12.979Z,101124.78
2022-11-30T08:58:01.605Z,101125.09
2022-11-30T09:03:46.290Z,101125.09
2022-11-30T09:06:34.864Z,101132.56
2022-11-30T09:09:23.604Z,101123.41
2022-11-30T09:12:12.292Z,101131.41
2022-11-30T09:15:01.103Z,101132.41
2022-11-30T09:17:54.199Z,101127.25
2022-11-30T09:20:42.816Z,101136.13
2022-11-30T09:23:31.639Z,101132.09
2022-11-30T09:26:23.751Z,101140.78
2022-11-30T09:29:12.385Z,101135.59
2022-11-30T09:32:01.101Z,101143.41
2022-11-30T09:34:51.351Z,101133.09
2022-11-30T09:37:40.301Z,101124.22
2022-11-30T09:40:34.120Z,101127.41
2022-11-30T09:43:32.554Z,101127.41
2022-11-30T09:46:26.218Z,101122.03
2022-11-30T09:49:19.817Z,101137.16
2022-11-30T09:52:14.337Z,101129.66
2022-11-30T09:55:06.518Z,101130.63
2022-11-30T09:57:57.439Z,101125.31
2022-11-30T10:00:46.118Z,101122.09
2022-11-30T10:03:35.057Z,101122.56
2022-11-30T10:06:28.544Z,101123.03
2022-11-30T10:09:32.634Z,101123.88
2022-11-30T10:12:28.463Z,101125.16
2022-11-30T10:15:27.132Z,101137.13
2022-11-30T10:18:22.508Z,101126.47
2022-11-30T10:21:23.474Z,101128.84
2022-11-30T10:24:24.099Z,101123.41
2022-11-30T10:27:18.603Z,101134.56
2022-11-30T10:30:17.592Z,101126.03
2022-11-30T10:33:15.518Z,101126.59
2022-11-30T10:36:07.050Z,101120.91
2022-11-30T10:39:02.018Z,101120.91
2022-11-30T10:41:54.324Z,101111.44
2022-11-30T10:44:47.175Z,101117.53
2022-11-30T10:47:37.716Z,101120.84
2022-11-30T10:50:28.288Z,101121.22
2022-11-30T10:53:17.005Z,101116.88
2022-11-30T10:56:09.764Z,101113.38
2022-11-30T10:59:00.717Z,101113.53
2022-11-30T11:01:52.693Z,101109.41
2022-11-30T11:04:41.383Z,101117.91
2022-11-30T11:07:30.692Z,101113.91
2022-11-30T11:10:21.499Z,101119.44
2022-11-30T11:13:17.719Z,101114.91
2022-11-30T11:16:08.615Z,101112.25
2022-11-30T11:18:59.285Z,101119.72
2022-11-30T11:21:49.650Z,101108.50
2022-11-30T11:24:38.347Z,101114.13
2022-11-30T11:27:29.338Z,101112.84
2022-11-30T11:30:29.460Z,101117.53
2022-11-30T11:33:21.880Z,101110.44
2022-11-30T11:36:27.107Z,101116.75
2022-11-30T11:39:26.911Z,101107.63
2022-11-30T11:42:20.649Z,101099.78
2022-11-30T11:45:18.468Z,101102.81
2022-11-30T11:48:11.774Z,101105.47
2022-11-30T11:51:07.596Z,101105.47
2022-11-30T11:53:59.160Z,101100.97
2022-11-30T11:56:51.293Z,101103.81
2022-11-30T11:59:47.669Z,101105.47
2022-11-30T12:02:39.524Z,101105.47
2022-11-30T12:05:30.436Z,101102.16
2022-11-30T12:08:25.991Z,101107.56
2022-11-30T12:11:18.852Z,101101.22
2022-11-30T12:14:12.668Z,101100.03
2022-11-30T12:17:11.370Z,101104.56
2022-11-30T12:20:06.907Z,101105.47
2022-11-30T12:23:10.089Z,101106.31
2022-11-30T12:26:06.949Z,101099.56
2022-11-30T12:29:11.617Z,101112.59
2022-11-30T12:32:08.607Z,101103.34
2022-11-30T12:35:06.880Z,101099.66
2022-11-30T12:38:06.638Z,101098.19
2022-11-30T12:41:02.119Z,101106.84
2022-11-30T12:43:59.463Z,101097.53
2022-11-30T12:46:54.431Z,101102.16
2022-11-30T12:49:54.207Z,101100.50
2022-11-30T12:52:50.039Z,101103.19
2022-11-30T12:55:42.038Z,101095.16
2022-11-30T12:58:38.650Z,101103.81
2022-11-30T13:01:41.179Z,101106.84
2022-11-30T13:04:34.891Z,101107.66
2022-11-30T13:07:29.035Z,101099.84
2022-11-30T13:10:26.681Z,101105.84
2022-11-30T13:13:17.907Z,101110.13
2022-11-30T13:16:08.069Z,101100.25
2022-11-30T13:19:00.940Z,101110.94
2022-11-30T13:21:55.347Z,101101.91
2022-11-30T13:24:47.370Z,101105.47
2022-11-30T13:27:42.372Z,101106.72
2022-11-30T13:30:39.696Z,101106.91
2022-11-30T13:33:50.490Z,101110.88
2022-11-30T13:36:40.279Z,101113.28
2022-11-30T13:39:31.368Z,101109.03
2022-11-30T13:42:35.808Z,101111.34
2022-11-30T13:45:31.314Z,101116.75
2022-11-30T13:48:29.767Z,101112.59
2022-11-30T13:51:36.712Z,101120.97
2022-11-30T13:54:46.789Z,101123.16
2022-11-30T13:58:07.649Z,101124.09
2022-11-30T14:01:25.366Z,101127.78
2022-11-30T14:04:25.234Z,101134.41
2022-11-30T14:07:35.763Z,101131.63
2022-11-30T14:10:33.226Z,101133.47
2022-11-30T14:13:32.276Z,101134.94
2022-11-30T14:16:23.979Z,101132.28
2022-11-30T14:19:12.656Z,101138.47
2022-11-30T14:22:01.796Z,101142.47
2022-11-30T14:24:51.275Z,101137.63
2022-11-30T14:27:41.547Z,101147.81
2022-11-30T14:30:33.572Z,101140.00
2022-11-30T14:33:42.115Z,101132.81
2022-11-30T14:36:41.899Z,101145.16
2022-11-30T14:39:35.274Z,101142.84
2022-11-30T14:42:25.307Z,101137.50
2022-11-30T14:45:20.888Z,101140.91
2022-11-30T14:48:14.915Z,101139.88
2022-11-30T14:51:05.230Z,101133.91
2022-11-30T14:53:57.010Z,101136.56
2022-11-30T14:56:51.964Z,101138.22
2022-11-30T14:59:47.912Z,101136.22
2022-11-30T15:02:39.314Z,101135.84
2022-11-30T15:05:28.078Z,101141.53
2022-11-30T15:08:18.740Z,101150.56
2022-11-30T15:11:08.825Z,101138.56
2022-11-30T15:13:58.734Z,101137.25
2022-11-30T15:16:53.203Z,101149.13
2022-11-30T15:19:49.588Z,101152.63
2022-11-30T15:22:38.483Z,101152.16
2022-11-30T15:25:32.285Z,101148.19
2022-11-30T15:28:23.809Z,101145.31
2022-11-30T15:31:16.909Z,101149.00
2022-11-30T15:34:06.427Z,101146.97
2022-11-30T15:36:57.293Z,101158.00
2022-11-30T15:39:50.180Z,101157.13
2022-11-30T15:42:40.927Z,101149.97
2022-11-30T15:45:31.756Z,101153.28
2022-11-30T15:48:29.584Z,101149.66
2022-11-30T15:51:28.747Z,101142.00
2022-11-30T15:54:18.772Z,101141.19
2022-11-30T15:57:09.204Z,101151.00
2022-11-30T16:00:07.983Z,101158.72
2022-11-30T16:03:09.144Z,101157.75
2022-11-30T16:05:59.176Z,101163.41
2022-11-30T16:08:48.376Z,101157.75
2022-11-30T16:11:38.688Z,101159.41
2022-11-30T16:14:27.714Z,101152.25
2022-11-30T16:17:16.467Z,101154.75
2022-11-30T16:20:05.410Z,101149.09
2022-11-30T16:22:54.022Z,101150.06
2022-11-30T16:25:44.200Z,101154.69
2022-11-30T16:28:34.295Z,101144.50
2022-11-30T16:31:23.461Z,101159.06
2022-11-30T16:34:13.371Z,101156.22
2022-11-30T16:37:02.069Z,101155.41
2022-11-30T16:39:51.184Z,101154.41
2022-11-30T16:42:42.492Z,101156.22
2022-11-30T16:45:36.161Z,101155.06
2022-11-30T16:48:24.895Z,101159.38
2022-11-30T16:51:19.373Z,101170.34
2022-11-30T16:54:08.104Z,101160.63
2022-11-30T16:56:56.888Z,101162.97
2022-11-30T16:59:45.671Z,101168.00
2022-11-30T17:02:36.252Z,101164.84
2022-11-30T17:05:24.943Z,101175.69
2022-11-30T17:08:13.590Z,101172.19
2022-11-30T17:11:02.274Z,101174.38
2022-11-30T17:13:51.279Z,101182.66
2022-11-30T17:16:41.903Z,101177.53
2022-11-30T17:19:31.992Z,101184.00
2022-11-30T17:22:20.633Z,101192.16
2022-11-30T17:25:10.951Z,101186.66
2022-11-30T17:28:00.223Z,101185.28
2022-11-30T17:30:49.167Z,101184.63
2022-11-30T17:33:39.103Z,101192.66
2022-11-30T17:36:31.376Z,101189.47
2022-11-30T17:39:20.029Z,101198.66
2022-11-30T17:42:08.788Z,101204.63
2022-11-30T17:44:57.682Z,101206.66
2022-11-30T17:47:46.473Z,101215.44
2022-11-30T17:50:35.307Z,101210.56
2022-11-30T17:53:25.488Z,101217.94
2022-11-30T17:56:16.367Z,101216.81
2022-11-30T17:59:05.365Z,101216.97
2022-11-30T18:01:56.592Z,101224.44
2022-11-30T18:04:45.565Z,101215.31
2022-11-30T18:07:34.445Z,101216.28
2022-11-30T18:10:24.817Z,101220.63
2022-11-30T18:13:13.843Z,101216.03
2022-11-30T18:16:08.783Z,101218.69
2022-11-30T18:18:58.622Z,101227.00
2022-11-30T18:21:48.115Z,101222.03
2022-11-30T18:24:36.948Z,101222.88
2022-11-30T18:27:27.731Z,101229.38
2022-11-30T18:30:17.539Z,101238.75
2022-11-30T18:33:06.230Z,101237.91
2022-11-30T18:35:59.846Z,101244.09
2022-11-30T18:38:48.953Z,101241.06
2022-11-30T18:41:37.799Z,101249.75
2022-11-30T18:44:27.955Z,101252.63
2022-11-30T18:47:16.832Z,101248.44
2022-11-30T18:50:06.124Z,101252.41
2022-11-30T18:52:55.801Z,101260.41
2022-11-30T18:55:44.418Z,101258.75
2022-11-30T18:58:33.081Z,101261.28
2022-11-30T19:01:23.141Z,101269.75
2022-11-30T19:04:12.431Z,101269.75
2022-11-30T19:07:01.081Z,101282.25
2022-11-30T19:09:50.327Z,101277.06
2022-11-30T19:12:38.955Z,101286.78
2022-11-30T19:15:27.739Z,101273.09
2022-11-30T19:18:21.864Z,101269.56
2022-11-30T19:21:13.725Z,101272.44
2022-11-30T19:24:02.685Z,101266.09
2022-11-30T19:26:51.495Z,101271.59
2022-11-30T19:29:40.093Z,101282.44
2022-11-30T19:32:29.488Z,101287.44
2022-11-30T19:35:19.588Z,101285.13
2022-11-30T19:38:08.332Z,101273.44
2022-11-30T19:40:57.208Z,101281.75
2022-11-30T19:43:52.475Z,101281.44
2022-11-30T19:46:43.719Z,101282.09
2022-11-30T19:49:32.405Z,101284.41
2022-11-30T19:52:22.371Z,101283.25
2022-11-30T19:55:11.501Z,101290.09
2022-11-30T19:58:00.530Z,101299.13
2022-11-30T20:00:50.526Z,101292.78
2022-11-30T20:03:39.497Z,101301.94
2022-11-30T20:06:29.685Z,101307.28
2022-11-30T20:09:19.815Z,101300.78
2022-11-30T20:12:08.521Z,101310.44
2022-11-30T20:15:04.992Z,101308.94
2022-11-30T20:17:54.450Z,101312.09
2022-11-30T20:20:43.081Z,101327.09
2022-11-30T20:23:31.741Z,101316.06
2022-11-30T20:26:24.001Z,101319.44
2022-11-30T20:29:15.001Z,101318.44
2022-11-30T20:32:03.732Z,101325.94
2022-11-30T20:34:52.493Z,101326.09
2022-11-30T20:37:41.167Z,101327.44
2022-11-30T20:40:29.836Z,101335.81
2022-11-30T20:43:20.679Z,101338.47
2022-11-30T20:46:17.145Z,101335.47
2022-11-30T20:49:14.951Z,101348.44
2022-11-30T20:52:03.821Z,101336.81
2022-11-30T20:54:52.571Z,101340.44
2022-11-30T20:57:41.285Z,101340.44
2022-11-30T21:00:31.368Z,101344.97
2022-11-30T21:03:19.979Z,101337.13
2022-11-30T21:06:09.347Z,101338.78
2022-11-30T21:08:57.998Z,101346.13
2022-11-30T21:11:47.406Z,101340.81
2022-11-30T21:14:36.291Z,101344.47
2022-11-30T21:17:26.352Z,101348.28
2022-11-30T21:20:15.180Z,101345.47
2022-11-30T21:23:03.787Z,101350.16
2022-11-30T21:25:52.419Z,101345.13
2022-11-30T21:28:41.163Z,101355.78
2022-11-30T21:31:29.860Z,101351.13
2022-11-30T21:34:20.040Z,101353.97
2022-11-30T21:37:08.655Z,101357.31
2022-11-30T21:39:57.613Z,101350.16
2022-11-30T21:42:46.258Z,101354.50
2022-11-30T21:45:35.158Z,101359.13
2022-11-30T21:48:23.879Z,101357.16
2022-11-30T21:51:16.076Z,101360.66
2022-11-30T21:54:07.250Z,101370.16
2022-11-30T21:56:55.893Z,101363.13
2022-11-30T21:59:44.505Z,101369.47
2022-11-30T22:02:33.371Z,101374.31
2022-11-30T22:05:22.047Z,101369.66
2022-11-30T22:08:12.096Z,101368.00
2022-11-30T22:11:04.360Z,101370.47
2022-11-30T22:13:54.330Z,101364.81
2022-11-30T22:16:43.459Z,101367.13
2022-11-30T22:19:32.080Z,101371.13
2022-11-30T22:22:20.700Z,101372.47
2022-11-30T22:25:11.149Z,101363.81
2022-11-30T22:27:59.866Z,101371.31
2022-11-30T22:30:48.495Z,101368.00
2022-11-30T22:33:38.436Z,101374.97
2022-11-30T22:36:28.707Z,101377.50
2022-11-30T22:39:19.288Z,101374.84
2022-11-30T22:42:09.255Z,101368.31
2022-11-30T22:45:00.083Z,101365.31
2022-11-30T22:47:48.653Z,101368.50
2022-11-30T22:50:37.313Z,101365.47
2022-11-30T22:53:26.078Z,101373.47
2022-11-30T22:56:16.235Z,101376.66
2022-11-30T22:59:06.770Z,101373.47
2022-11-30T23:01:55.470Z,101372.00
2022-11-30T23:04:44.149Z,101369.34
2022-11-30T23:07:32.931Z,101367.84
2022-11-30T23:10:21.625Z,101369.16
2022-11-30T23:13:10.268Z,101369.34
2022-11-30T23:16:01.040Z,101362.34
2022-11-30T23:18:51.789Z,101365.81
2022-11-30T23:21:42.277Z,101364.81
2022-11-30T23:24:31.053Z,101364.16
2022-11-30T23:27:19.723Z,101370.84
2022-11-30T23:30:10.356Z,101362.50
2022-11-30T23:33:03.069Z,101363.84
2022-11-30T23:35:51.765Z,101365.81
2022-11-30T23:38:40.434Z,101361.50
2022-11-30T23:41:29.312Z,101360.19
2022-11-30T23:44:18.297Z,101353.84
2022-11-30T23:47:07.432Z,101357.00
2022-11-30T23:49:57.682Z,101350.53
2022-11-30T23:52:46.418Z,101348.66
2022-11-30T23:55:36.492Z,101349.81
2022-11-30T23:58:25.475Z,101348.66
